EDDE/ERF METAR and TAF weather

Enter ICAO airport designator
Station Type Date Time Source
EDDE METAR 2018/06/25 16:50 UTC NOAA

EDDE 251650Z 32012KT 9999 FEW036 BKN110 18/11 Q1022 NOSIG


Station Type Date Time Source
EDDE Decoded METAR 2018/06/25 16:50 UTC NOAA

Erfurt-Bindersleben, Germany (EDDE) 50-59N 010-58E 322M
Jun 25, 2018 - 12:50 PM EDT / 2018.06.25 1650 UTC
Wind: from the NW (320 degrees) at 14 MPH (12 KT):0
Visibility: greater than 7 mile(s):0
Sky conditions: mostly cloudy
Temperature: 64 F (18 C)
Dew Point: 51 F (11 C)
Relative Humidity: 63%
Pressure (altimeter): 30.18 in. Hg (1022 hPa)
ob: EDDE 251650Z 32012KT 9999 FEW036 BKN110 18/11 Q1022 NOSIG
cycle: 17

Station Type Date Time Source
EDDE TAF 2018/06/25 12:31 UTC NOAA

TAF EDDE 251100Z 2512/2612 32005KT 9999 SCT040
TEMPO 2516/2520 32011KT
BECMG 2520/2522 VRB02KT


Example: see airport list